Time;durP1;ratioP1;P1;durP2;ratioP2;P2;SDS_P1;SDS_P2;PMS_P1;PMS_P2;Temp;Humidity;BMP_temperature;BMP_pressure;BME280_temperature;BME280_humidity;BME280_pressure;Samples;Min_cycle;Max_cycle;Signal;HPM_P1;HPM_P2
2022/12/25 00:01:21;;;;;;;16.60;12.33;;;6.40;99.90;;;;;;5093645;28;20173;-88
2022/12/25 00:03:47;;;;;;;20.80;14.37;;;6.50;99.90;;;;;;5078779;28;20245;-88
2022/12/25 00:06:13;;;;;;;19.40;12.90;;;6.50;99.90;;;;;;5075955;28;20273;-89
2022/12/25 00:08:40;;;;;;;19.20;13.70;;;6.40;99.90;;;;;;5077211;28;20224;-87
2022/12/25 00:11:09;;;;;;;18.80;14.30;;;6.40;99.90;;;;;;5077979;28;20181;-88
2022/12/25 00:13:37;;;;;;;23.37;13.97;;;6.40;99.90;;;;;;5076959;28;20266;-87
2022/12/25 00:16:08;;;;;;;21.33;14.57;;;6.30;99.90;;;;;;5079779;28;20643;-85
2022/12/25 00:18:34;;;;;;;21.17;15.30;;;6.20;99.90;;;;;;5089740;28;20182;-88
2022/12/25 00:21:03;;;;;;;20.77;14.67;;;6.20;99.90;;;;;;5077325;28;20780;-89
2022/12/25 00:23:29;;;;;;;23.33;15.30;;;6.30;99.90;;;;;;5075585;28;20181;-89
2022/12/25 00:25:55;;;;;;;18.33;14.37;;;6.20;99.90;;;;;;5077039;28;20170;-87
2022/12/25 00:28:22;;;;;;;20.37;15.03;;;6.10;99.90;;;;;;5079994;28;20295;-85
2022/12/25 00:30:48;;;;;;;23.03;14.93;;;6.10;99.90;;;;;;5090227;28;20629;-88
2022/12/25 00:33:15;;;;;;;20.00;15.00;;;6.10;99.90;;;;;;5075790;28;20753;-87
2022/12/25 00:35:41;;;;;;;20.07;14.87;;;6.00;99.90;;;;;;5077158;28;20178;-89
2022/12/25 00:38:07;;;;;;;19.53;14.20;;;6.00;99.90;;;;;;5076823;28;20172;-89
2022/12/25 00:40:32;;;;;;;20.53;13.30;;;6.00;99.90;;;;;;5075555;28;20694;-89
2022/12/25 00:42:58;;;;;;;22.03;13.73;;;6.00;99.90;;;;;;5076474;28;20230;-89
2022/12/25 00:45:24;;;;;;;21.47;13.27;;;5.90;99.90;;;;;;5076672;28;20180;-90
2022/12/25 00:47:50;;;;;;;17.90;12.60;;;6.00;99.90;;;;;;5076576;28;20171;-89
2022/12/25 00:50:17;;;;;;;18.83;13.97;;;5.90;99.90;;;;;;5076219;28;20285;-87
2022/12/25 00:52:43;;;;;;;16.97;12.70;;;5.90;99.90;;;;;;5075049;28;20234;-88
2022/12/25 00:55:09;;;;;;;18.50;13.53;;;5.90;99.90;;;;;;5076301;28;20651;-90
2022/12/25 00:57:35;;;;;;;20.00;13.50;;;5.90;99.90;;;;;;5086879;28;20188;-85
2022/12/25 01:00:00;;;;;;;17.80;12.97;;;5.80;99.90;;;;;;5078416;28;20179;-89
2022/12/25 01:02:26;;;;;;;18.07;13.37;;;5.80;99.90;;;;;;5077010;28;20171;-88
2022/12/25 01:04:56;;;;;;;18.23;12.60;;;5.90;99.90;;;;;;5076791;28;20624;-89
2022/12/25 01:07:24;;;;;;;19.10;12.87;;;5.90;99.90;;;;;;5075515;28;20177;-84
2022/12/25 01:12:38;;;;;;;18.87;12.93;;;5.90;99.90;;;;;;5075506;28;20239;-84
2022/12/25 01:15:06;;;;;;;16.13;11.80;;;5.90;99.90;;;;;;5079217;28;20193;-83
2022/12/25 01:17:33;;;;;;;16.23;11.57;;;5.90;99.90;;;;;;5079024;28;20164;-83
2022/12/25 01:19:58;;;;;;;16.63;11.90;;;5.90;99.90;;;;;;5073551;28;20191;-85
2022/12/25 01:22:24;;;;;;;16.67;12.40;;;5.90;99.90;;;;;;5074645;28;20688;-84
2022/12/25 01:24:50;;;;;;;17.00;11.93;;;5.90;99.90;;;;;;5074845;28;20172;-85
2022/12/25 01:27:16;;;;;;;16.97;11.60;;;5.90;99.90;;;;;;5075234;28;20174;-84
2022/12/25 01:29:42;;;;;;;16.03;11.50;;;5.90;99.90;;;;;;5080057;28;20574;-85
2022/12/25 01:32:09;;;;;;;15.00;10.80;;;5.90;99.90;;;;;;5094299;28;20174;-87
2022/12/25 01:34:35;;;;;;;16.80;12.40;;;5.90;99.90;;;;;;5099797;28;20156;-86
2022/12/25 01:37:01;;;;;;;14.20;11.07;;;6.00;99.90;;;;;;5089197;28;20232;-84
2022/12/25 01:39:27;;;;;;;16.90;11.70;;;6.00;99.90;;;;;;5074593;28;20172;-84
2022/12/25 01:41:53;;;;;;;15.03;11.57;;;6.00;99.90;;;;;;5074416;28;20178;-84
2022/12/25 01:44:18;;;;;;;14.87;11.73;;;6.00;99.90;;;;;;5073042;28;20660;-83
2022/12/25 01:46:45;;;;;;;17.13;12.30;;;6.00;99.90;;;;;;5072738;28;20215;-85
2022/12/25 01:49:15;;;;;;;17.67;12.83;;;6.00;99.90;;;;;;5072591;28;20239;-87
2022/12/25 01:51:46;;;;;;;15.10;12.03;;;6.10;99.90;;;;;;5073705;28;20663;-90
2022/12/25 01:54:18;;;;;;;13.97;11.30;;;6.10;99.90;;;;;;5075363;28;20276;-89
2022/12/25 01:56:46;;;;;;;13.67;10.87;;;6.00;99.90;;;;;;5075375;28;20178;-88
2022/12/25 01:59:17;;;;;;;16.57;11.17;;;6.00;99.90;;;;;;5075061;28;20208;-91
2022/12/25 02:01:43;;;;;;;14.37;11.47;;;6.20;99.90;;;;;;5075113;28;20169;-88
2022/12/25 02:04:19;;;;;;;12.23;10.00;;;6.20;99.90;;;;;;5057344;28;20193;-89
2022/12/25 02:06:46;;;;;;;14.50;10.00;;;6.20;99.90;;;;;;5074080;28;20650;-88
2022/12/25 02:09:12;;;;;;;15.63;10.97;;;6.20;99.90;;;;;;5074981;28;20207;-89
2022/12/25 02:11:56;;;;;;;14.30;11.77;;;6.20;99.90;;;;;;5088685;28;20172;-89
2022/12/25 02:14:26;;;;;;;15.53;10.57;;;6.20;99.90;;;;;;5081474;28;20232;-90
2022/12/25 02:17:14;;;;;;;14.33;10.70;;;6.20;99.90;;;;;;5095242;28;20181;-88
2022/12/25 02:20:17;;;;;;;15.37;11.30;;;6.10;99.90;;;;;;5085641;28;20181;-89
2022/12/25 02:23:20;;;;;;;16.07;11.80;;;6.00;99.90;;;;;;5076213;28;20174;-89
2022/12/25 02:26:26;;;;;;;16.20;11.87;;;6.00;99.90;;;;;;5077617;28;20172;-89
2022/12/25 02:29:19;;;;;;;17.50;12.60;;;6.00;99.90;;;;;;5076738;28;20200;-90
2022/12/25 02:31:49;;;;;;;15.47;11.53;;;6.00;99.90;;;;;;5074940;28;20187;-90
2022/12/25 02:34:20;;;;;;;16.17;11.77;;;6.00;99.90;;;;;;5074820;28;20247;-89
2022/12/25 02:37:08;;;;;;;16.13;11.37;;;6.10;99.90;;;;;;5075210;28;20161;-88
2022/12/25 02:40:01;;;;;;;15.77;11.77;;;6.10;99.90;;;;;;5073874;28;20651;-87
2022/12/25 03:08:11;;;;;;;18.47;12.40;;;6.00;99.90;;;;;;5096716;28;20214;-84
2022/12/25 03:13:32;;;;;;;15.80;10.77;;;6.00;99.90;;;;;;5075352;28;20165;-85
2022/12/25 03:18:46;;;;;;;16.00;11.03;;;6.00;99.90;;;;;;5074117;28;20168;-87
2022/12/25 03:26:53;;;;;;;16.60;11.03;;;5.90;99.90;;;;;;5074836;28;20571;-86
2022/12/25 03:26:55;;;;;;;17.10;11.00;;;5.90;99.90;;;;;;5073677;28;20252;-86
2022/12/25 03:32:31;;;;;;;15.57;11.20;;;5.80;99.90;;;;;;5018128;28;20651;-85
2022/12/25 03:35:24;;;;;;;15.33;10.60;;;5.70;99.90;;;;;;5073058;28;20175;-86
2022/12/25 04:37:32;;;;;;;14.10;10.53;;;5.10;99.90;;;;;;5072433;28;20206;-84
2022/12/25 04:39:58;;;;;;;14.30;10.70;;;5.20;99.90;;;;;;5090357;28;20183;-84
2022/12/25 04:42:24;;;;;;;16.63;10.30;;;5.20;99.90;;;;;;5099723;28;20170;-85
2022/12/25 04:44:49;;;;;;;15.77;11.30;;;5.20;99.90;;;;;;5099161;28;20186;-83
2022/12/25 04:47:15;;;;;;;17.13;10.67;;;5.20;99.90;;;;;;5077280;28;20682;-82
2022/12/25 04:49:41;;;;;;;10.57;8.97;;;5.20;99.90;;;;;;5076403;28;20227;-85
2022/12/25 04:52:07;;;;;;;14.73;9.33;;;5.20;99.90;;;;;;5077228;28;20167;-86
2022/12/25 04:54:32;;;;;;;15.90;9.90;;;5.20;99.90;;;;;;5075590;28;20193;-84
2022/12/25 04:56:58;;;;;;;13.53;10.30;;;5.30;99.90;;;;;;5078154;28;20580;-83
2022/12/25 04:59:24;;;;;;;12.53;9.90;;;5.30;99.90;;;;;;5076304;28;20190;-85
2022/12/25 05:01:49;;;;;;;15.57;9.63;;;5.30;99.90;;;;;;5074155;28;20530;-83
2022/12/25 05:04:18;;;;;;;14.37;10.07;;;5.20;99.90;;;;;;5075158;28;20190;-87
2022/12/25 05:06:44;;;;;;;17.17;10.10;;;5.20;99.90;;;;;;5076656;28;20244;-84
2022/12/25 05:09:10;;;;;;;13.93;9.77;;;5.10;99.90;;;;;;5076005;28;20299;-84
2022/12/25 05:11:36;;;;;;;13.73;9.73;;;5.00;99.90;;;;;;5074099;28;20182;-83
2022/12/25 05:14:01;;;;;;;16.23;11.00;;;5.00;99.90;;;;;;5074594;28;20186;-83
2022/12/25 05:16:27;;;;;;;12.47;8.63;;;4.90;99.90;;;;;;5074392;28;20212;-84
2022/12/25 05:18:53;;;;;;;12.70;9.37;;;4.90;99.90;;;;;;5081886;28;20176;-83
2022/12/25 05:21:19;;;;;;;11.37;8.43;;;4.80;99.90;;;;;;5081013;28;20183;-84
2022/12/25 05:23:49;;;;;;;14.47;9.73;;;4.80;99.90;;;;;;5078356;28;20167;-85
2022/12/25 05:26:17;;;;;;;11.07;9.23;;;4.80;99.90;;;;;;5076809;28;20168;-83
2022/12/25 05:28:43;;;;;;;13.60;9.30;;;4.80;99.90;;;;;;5074445;28;20213;-86
2022/12/25 05:31:09;;;;;;;15.53;10.10;;;4.80;99.90;;;;;;5076193;28;20247;-88
2022/12/25 05:33:36;;;;;;;13.53;9.93;;;4.70;99.90;;;;;;5076015;28;20173;-87
2022/12/25 05:36:04;;;;;;;14.77;10.13;;;4.70;99.90;;;;;;5082384;28;20271;-86
2022/12/25 05:38:30;;;;;;;10.97;8.83;;;4.70;99.90;;;;;;5081359;28;20179;-87
2022/12/25 05:40:56;;;;;;;11.73;8.50;;;4.70;99.90;;;;;;5076157;28;20638;-88
2022/12/25 05:43:22;;;;;;;13.23;9.00;;;4.60;99.90;;;;;;5074931;28;20189;-85
2022/12/25 05:45:49;;;;;;;15.50;10.07;;;4.60;99.90;;;;;;5074470;28;20171;-87
2022/12/25 05:48:15;;;;;;;12.57;9.43;;;4.60;99.90;;;;;;5077049;28;20178;-88
2022/12/25 05:50:41;;;;;;;12.27;9.60;;;4.60;99.90;;;;;;5076503;28;20168;-86
2022/12/25 05:53:12;;;;;;;14.80;10.13;;;4.60;99.90;;;;;;5076353;28;20175;-90
2022/12/25 05:55:40;;;;;;;12.70;9.13;;;4.60;99.90;;;;;;5076159;28;20196;-89
2022/12/25 05:58:06;;;;;;;10.00;7.20;;;4.60;99.90;;;;;;5080351;28;20191;-90
2022/12/25 06:00:32;;;;;;;12.67;8.77;;;4.50;99.90;;;;;;5080319;28;20176;-90
2022/12/25 06:02:59;;;;;;;13.47;8.53;;;4.50;99.90;;;;;;5077666;28;20187;-90
2022/12/25 06:05:25;;;;;;;11.13;8.70;;;4.40;99.90;;;;;;5077835;28;20252;-88
2022/12/25 06:07:51;;;;;;;13.70;9.30;;;4.50;99.90;;;;;;5077544;28;20175;-90
2022/12/25 06:10:17;;;;;;;9.47;7.67;;;4.40;99.90;;;;;;5081901;28;20288;-88
2022/12/25 06:12:43;;;;;;;14.47;8.80;;;4.40;99.90;;;;;;5078092;28;20208;-90
2022/12/25 06:15:09;;;;;;;12.40;8.33;;;4.40;99.90;;;;;;5078340;28;20180;-88
2022/12/25 06:17:35;;;;;;;11.47;7.30;;;4.30;99.90;;;;;;5090336;28;20162;-88
2022/12/25 06:20:02;;;;;;;11.50;7.30;;;4.30;99.90;;;;;;5098395;28;20174;-89
2022/12/25 06:22:28;;;;;;;10.50;7.67;;;4.40;99.90;;;;;;5088929;28;20187;-84
2022/12/25 06:24:54;;;;;;;10.17;8.67;;;4.30;99.90;;;;;;5078089;28;20167;-85
2022/12/25 06:27:20;;;;;;;10.47;7.60;;;4.30;99.90;;;;;;5075353;28;20238;-85
2022/12/25 06:29:46;;;;;;;12.50;7.90;;;4.20;99.90;;;;;;5075612;28;20221;-84
2022/12/25 06:32:12;;;;;;;11.83;8.60;;;4.20;99.90;;;;;;5074761;28;20622;-85
2022/12/25 06:34:37;;;;;;;10.70;7.37;;;4.20;99.90;;;;;;5077933;28;20212;-84
2022/12/25 06:37:04;;;;;;;10.30;7.73;;;4.20;99.90;;;;;;5072884;28;20185;-85
2022/12/25 06:39:30;;;;;;;12.83;7.97;;;4.20;99.90;;;;;;5075248;28;20171;-83
2022/12/25 06:41:56;;;;;;;11.50;8.87;;;4.20;99.90;;;;;;5075922;28;20177;-84
2022/12/25 06:44:22;;;;;;;14.30;8.07;;;4.20;99.90;;;;;;5075404;28;20171;-85
2022/12/25 06:46:48;;;;;;;13.23;8.50;;;4.20;99.90;;;;;;5075710;28;20171;-83
2022/12/25 06:49:14;;;;;;;9.97;8.30;;;4.20;99.90;;;;;;5075301;28;20240;-86
2022/12/25 06:51:40;;;;;;;13.43;9.13;;;4.30;99.90;;;;;;5075762;28;20575;-84
2022/12/25 06:54:06;;;;;;;14.57;9.33;;;4.30;99.90;;;;;;5073926;28;20189;-90
2022/12/25 06:56:33;;;;;;;15.10;10.03;;;4.40;99.90;;;;;;5087582;28;20247;-84
2022/12/25 06:59:07;;;;;;;13.43;9.87;;;4.40;99.90;;;;;;5086196;28;20186;-84
2022/12/25 07:01:39;;;;;;;13.57;9.73;;;4.40;99.90;;;;;;5077272;28;20232;-85
2022/12/25 07:04:11;;;;;;;14.60;10.03;;;4.50;99.90;;;;;;5075288;28;20173;-84
2022/12/25 07:06:37;;;;;;;7.97;6.57;;;4.50;99.90;;;;;;5074528;28;20180;-84
2022/12/25 07:09:03;;;;;;;7.67;6.60;;;4.70;99.90;;;;;;5074361;28;20210;-86
2022/12/25 07:11:28;;;;;;;10.33;7.80;;;4.70;99.90;;;;;;5074044;28;20638;-84
2022/12/25 07:13:57;;;;;;;11.47;8.10;;;4.70;99.90;;;;;;5075137;28;20171;-86
2022/12/25 07:16:23;;;;;;;10.97;8.23;;;4.70;99.90;;;;;;5075267;28;20187;-87
2022/12/25 07:18:49;;;;;;;9.83;7.70;;;4.80;99.90;;;;;;5075605;28;20156;-89
2022/12/25 07:21:18;;;;;;;9.97;7.63;;;4.90;99.90;;;;;;5080570;28;20247;-86
2022/12/25 07:23:45;;;;;;;9.67;7.17;;;4.90;99.90;;;;;;5075654;28;20505;-85
2022/12/25 07:26:12;;;;;;;9.03;6.77;;;4.90;99.90;;;;;;5075289;28;20179;-87
2022/12/25 07:28:38;;;;;;;9.20;7.20;;;5.00;99.90;;;;;;5074422;28;20211;-89
2022/12/25 07:31:08;;;;;;;8.87;6.97;;;5.00;99.90;;;;;;5076819;28;20168;-89
2022/12/25 07:33:34;;;;;;;12.67;8.00;;;5.00;99.90;;;;;;5085018;28;20202;-86
2022/12/25 07:36:00;;;;;;;10.77;7.97;;;5.00;99.90;;;;;;5078852;28;20188;-89
2022/12/25 07:38:26;;;;;;;15.50;8.37;;;5.00;99.90;;;;;;5078159;28;20175;-85
2022/12/25 07:40:52;;;;;;;11.60;8.10;;;5.00;99.90;;;;;;5077683;28;20175;-89
2022/12/25 07:43:19;;;;;;;10.00;7.47;;;5.10;99.90;;;;;;5081367;28;20183;-87
2022/12/25 07:45:44;;;;;;;9.03;7.27;;;5.10;99.90;;;;;;5082399;28;20226;-88
2022/12/25 07:48:11;;;;;;;8.43;6.93;;;5.10;99.90;;;;;;5085647;28;20171;-84
2022/12/25 07:50:37;;;;;;;9.70;7.73;;;5.20;99.90;;;;;;5087107;28;20239;-88
2022/12/25 07:53:03;;;;;;;10.60;7.70;;;5.20;99.90;;;;;;5090682;28;20215;-87
2022/12/25 07:55:29;;;;;;;10.13;7.90;;;5.20;99.90;;;;;;5100540;28;20163;-87
2022/12/25 07:57:55;;;;;;;11.23;7.47;;;5.30;99.90;;;;;;5098569;28;20171;-85
2022/12/25 08:00:21;;;;;;;10.83;7.23;;;5.40;99.90;;;;;;5095000;28;20163;-88
2022/12/25 08:02:49;;;;;;;9.50;7.43;;;5.40;99.90;;;;;;5085018;28;20188;-87
2022/12/25 08:05:16;;;;;;;9.93;7.73;;;5.50;99.90;;;;;;5089885;28;20205;-88
2022/12/25 08:07:41;;;;;;;11.00;8.50;;;5.60;99.90;;;;;;5085605;28;20196;-85
2022/12/25 08:10:07;;;;;;;11.63;8.60;;;5.60;99.90;;;;;;5077203;28;20252;-86
2022/12/25 08:12:33;;;;;;;13.17;8.63;;;5.70;99.90;;;;;;5076574;28;20183;-84
2022/12/25 08:14:59;;;;;;;10.33;8.37;;;5.70;99.90;;;;;;5078001;28;20172;-87
2022/12/25 08:17:25;;;;;;;12.80;8.77;;;5.70;99.90;;;;;;5076905;28;20576;-88
2022/12/25 08:19:51;;;;;;;14.87;9.33;;;5.80;99.90;;;;;;5077760;28;20173;-92
2022/12/25 08:22:17;;;;;;;10.40;8.70;;;5.80;99.90;;;;;;5079202;28;20178;-89
2022/12/25 08:24:42;;;;;;;13.60;9.50;;;5.80;99.90;;;;;;5080056;28;20171;-84
2022/12/25 08:27:08;;;;;;;11.93;9.37;;;5.80;99.90;;;;;;5077868;28;20167;-85
2022/12/25 08:29:34;;;;;;;11.63;9.30;;;5.80;99.90;;;;;;5076671;28;20215;-84
2022/12/25 08:32:01;;;;;;;10.70;9.03;;;5.90;99.90;;;;;;5077549;28;20499;-85
2022/12/25 08:34:27;;;;;;;13.33;9.57;;;5.80;99.90;;;;;;5076717;28;20179;-84
2022/12/25 08:36:52;;;;;;;11.33;9.30;;;5.90;99.90;;;;;;5078292;28;20179;-87
2022/12/25 08:39:19;;;;;;;12.90;9.83;;;6.00;99.90;;;;;;5078537;28;20177;-87
2022/12/25 08:41:45;;;;;;;12.03;9.27;;;6.00;99.90;;;;;;5077926;28;20174;-90
2022/12/25 08:44:13;;;;;;;12.03;9.20;;;6.10;99.90;;;;;;5078007;28;20169;-87
2022/12/25 08:46:39;;;;;;;11.77;9.37;;;6.10;99.90;;;;;;5076301;28;20623;-89
2022/12/25 08:49:05;;;;;;;10.43;9.10;;;6.20;99.90;;;;;;5077007;28;20227;-87
2022/12/25 08:51:31;;;;;;;14.90;11.93;;;6.20;99.90;;;;;;5077278;28;20164;-84
2022/12/25 08:53:59;;;;;;;14.00;9.80;;;6.30;99.90;;;;;;5076910;28;20183;-86
2022/12/25 08:56:25;;;;;;;13.50;10.60;;;6.30;99.90;;;;;;5077410;28;20248;-85
2022/12/25 08:58:51;;;;;;;11.57;9.43;;;6.30;99.90;;;;;;5076523;28;20252;-84
2022/12/25 09:01:17;;;;;;;14.63;10.87;;;6.40;99.90;;;;;;5079241;28;20619;-84
2022/12/25 09:03:43;;;;;;;11.50;9.93;;;6.40;99.90;;;;;;5083579;28;20202;-86
2022/12/25 09:06:13;;;;;;;13.23;9.73;;;6.40;99.90;;;;;;5082498;28;20173;-85
2022/12/25 09:08:40;;;;;;;14.27;10.87;;;6.50;99.90;;;;;;5078332;28;20196;-88
2022/12/25 09:11:09;;;;;;;13.70;10.07;;;6.60;99.90;;;;;;5076608;28;20181;-88
2022/12/25 09:13:37;;;;;;;11.40;9.30;;;6.60;99.90;;;;;;5086887;28;20153;-88
2022/12/25 09:16:07;;;;;;;11.10;9.83;;;6.70;99.90;;;;;;5095038;28;20165;-85
2022/12/25 09:18:33;;;;;;;11.77;9.80;;;6.70;99.90;;;;;;5090328;28;20188;-87
2022/12/25 09:21:00;;;;;;;12.07;9.07;;;6.80;99.90;;;;;;5079176;28;20238;-89
2022/12/25 09:23:27;;;;;;;11.93;9.60;;;6.80;99.90;;;;;;5076990;28;20581;-87
2022/12/25 09:25:52;;;;;;;12.33;10.13;;;6.80;99.90;;;;;;5076340;28;20216;-86
2022/12/25 09:28:18;;;;;;;14.13;10.47;;;6.90;99.90;;;;;;5085773;28;20183;-82
2022/12/25 09:30:44;;;;;;;15.90;11.17;;;6.80;99.90;;;;;;5097082;28;20179;-87
2022/12/25 09:33:10;;;;;;;12.60;10.17;;;6.80;99.90;;;;;;5089962;28;20212;-86
2022/12/25 09:35:36;;;;;;;13.67;10.73;;;6.70;99.90;;;;;;5087085;28;20666;-87
2022/12/25 09:38:01;;;;;;;17.40;11.13;;;6.70;99.90;;;;;;5077914;28;20191;-89
2022/12/25 09:40:31;;;;;;;17.93;11.87;;;6.70;99.90;;;;;;5073795;28;20200;-84
2022/12/25 09:42:59;;;;;;;14.13;10.77;;;6.70;99.90;;;;;;5073873;28;20181;-85
2022/12/25 09:45:34;;;;;;;15.17;11.57;;;6.80;99.90;;;;;;5080906;28;20273;-86
2022/12/25 09:48:00;;;;;;;13.40;10.37;;;6.90;99.90;;;;;;5080689;28;20217;-85
2022/12/25 09:50:54;;;;;;;14.40;11.20;;;7.00;99.90;;;;;;5079263;28;20568;-85
2022/12/25 09:53:28;;;;;;;14.67;11.40;;;7.00;99.90;;;;;;5073105;28;20185;-85
2022/12/25 09:55:56;;;;;;;16.77;11.57;;;7.10;99.90;;;;;;5076180;28;20180;-86
2022/12/25 09:58:24;;;;;;;16.40;10.60;;;7.20;99.90;;;;;;5074082;28;20177;-86
2022/12/25 10:01:19;;;;;;;13.50;10.33;;;7.20;99.90;;;;;;5074072;28;20188;-86
2022/12/25 10:04:15;;;;;;;17.83;12.57;;;7.30;99.90;;;;;;5075418;28;20196;-85
2022/12/25 10:07:15;;;;;;;19.67;15.20;;;7.40;99.90;;;;;;5075038;28;20171;-86
2022/12/25 10:10:00;;;;;;;12.93;10.87;;;7.40;99.90;;;;;;5076579;28;20199;-88
2022/12/25 10:12:44;;;;;;;12.70;10.93;;;7.40;99.90;;;;;;5074652;28;20173;-85
2022/12/25 10:15:24;;;;;;;14.43;11.33;;;7.50;99.90;;;;;;5075595;28;20172;-86
2022/12/25 10:18:02;;;;;;;13.73;11.20;;;7.50;99.90;;;;;;5079244;28;20238;-86
2022/12/25 10:20:43;;;;;;;12.17;10.87;;;7.50;99.90;;;;;;5077280;28;20211;-85
2022/12/25 10:23:33;;;;;;;14.00;11.03;;;7.60;99.90;;;;;;5076081;28;20174;-85
2022/12/25 10:25:59;;;;;;;20.77;15.20;;;7.60;99.90;;;;;;5073840;28;20190;-85
2022/12/25 10:28:32;;;;;;;23.07;16.77;;;7.70;99.90;;;;;;5073317;28;20241;-86
2022/12/25 10:31:13;;;;;;;18.03;13.40;;;7.70;99.90;;;;;;5073802;28;20192;-85
2022/12/25 10:33:39;;;;;;;17.10;12.03;;;7.70;99.90;;;;;;5073142;28;20227;-84
2022/12/25 10:36:06;;;;;;;14.77;11.87;;;7.80;99.90;;;;;;5073582;28;20181;-84
2022/12/25 10:38:32;;;;;;;15.07;10.97;;;7.80;99.90;;;;;;5074184;28;20231;-83
2022/12/25 10:40:58;;;;;;;14.30;11.37;;;7.90;99.90;;;;;;5074031;28;20170;-86
2022/12/25 10:43:32;;;;;;;14.10;11.87;;;8.00;99.90;;;;;;5074469;28;20650;-86
2022/12/25 10:45:58;;;;;;;14.53;11.47;;;8.00;99.90;;;;;;5076208;28;20247;-84
2022/12/25 10:48:29;;;;;;;16.27;12.33;;;8.10;99.90;;;;;;5075376;28;20291;-86
2022/12/25 10:50:55;;;;;;;15.77;12.40;;;8.20;99.90;;;;;;5073571;28;20213;-85
2022/12/25 10:53:27;;;;;;;15.20;11.73;;;8.30;99.90;;;;;;5079209;28;20174;-89
2022/12/25 10:56:13;;;;;;;13.57;11.23;;;8.40;99.90;;;;;;5076857;28;20248;-86
2022/12/25 10:58:39;;;;;;;15.00;11.80;;;8.50;99.90;;;;;;5076894;28;20170;-89
2022/12/25 11:01:07;;;;;;;14.77;11.30;;;8.60;99.90;;;;;;5076687;28;20185;-85
2022/12/25 11:03:37;;;;;;;14.97;11.30;;;8.60;99.90;;;;;;5083227;28;20175;-88
2022/12/25 11:06:04;;;;;;;12.00;10.20;;;8.80;99.90;;;;;;5099355;28;20162;-87
2022/12/25 11:08:32;;;;;;;12.73;9.13;;;8.80;99.90;;;;;;5099084;28;20171;-87
2022/12/25 11:11:06;;;;;;;12.73;9.53;;;8.90;99.90;;;;;;5085991;28;20192;-86
2022/12/25 11:13:36;;;;;;;13.87;10.03;;;8.90;99.90;;;;;;5092440;28;20623;-86
2022/12/25 11:16:08;;;;;;;14.33;11.20;;;9.00;99.90;;;;;;5079774;28;20171;-88
2022/12/25 11:18:51;;;;;;;13.63;10.60;;;9.00;99.90;;;;;;5078693;28;20170;-84
2022/12/25 11:21:27;;;;;;;16.13;10.43;;;9.10;99.90;;;;;;5078523;28;20178;-86
2022/12/25 11:23:59;;;;;;;14.47;9.87;;;9.10;99.90;;;;;;5078951;28;20168;-84
2022/12/25 11:26:26;;;;;;;11.43;9.43;;;9.10;99.90;;;;;;5078299;28;20171;-85
2022/12/25 11:28:57;;;;;;;18.43;15.37;;;9.10;99.90;;;;;;5081226;28;20199;-87
2022/12/25 11:31:36;;;;;;;12.03;10.30;;;9.20;99.90;;;;;;5085797;28;20164;-86
2022/12/25 11:34:32;;;;;;;10.27;8.60;;;9.20;99.90;;;;;;5090741;28;20177;-86
2022/12/25 11:37:02;;;;;;;11.30;8.63;;;9.30;99.90;;;;;;5094893;28;20194;-86
2022/12/25 11:39:36;;;;;;;10.60;8.87;;;9.30;99.90;;;;;;5097575;28;20201;-85
2022/12/25 11:42:16;;;;;;;10.07;8.00;;;9.30;99.90;;;;;;5095157;28;20196;-88
2022/12/25 11:45:10;;;;;;;9.03;7.77;;;9.30;99.90;;;;;;5079318;28;20311;-87
2022/12/25 11:47:48;;;;;;;9.70;7.33;;;9.30;99.90;;;;;;5076977;28;20177;-85
2022/12/25 11:50:34;;;;;;;9.10;8.03;;;9.30;99.90;;;;;;5077785;28;20226;-86
2022/12/25 11:53:04;;;;;;;8.80;7.50;;;9.40;99.90;;;;;;5077008;28;20160;-90
2022/12/25 11:55:43;;;;;;;7.80;7.07;;;9.40;99.90;;;;;;5077311;28;20182;-87
2022/12/25 11:58:31;;;;;;;6.80;6.10;;;9.50;99.90;;;;;;5081980;28;20163;-89
2022/12/25 12:01:01;;;;;;;6.60;5.90;;;9.50;99.90;;;;;;5080811;28;20172;-87
2022/12/25 12:03:33;;;;;;;6.90;6.00;;;9.60;99.90;;;;;;5079484;28;20167;-87
2022/12/25 12:06:23;;;;;;;7.50;5.83;;;9.60;99.90;;;;;;5078445;28;20157;-88
2022/12/25 12:08:55;;;;;;;8.63;6.13;;;9.60;99.90;;;;;;5078922;28;20195;-89
2022/12/25 12:11:37;;;;;;;8.20;5.97;;;9.70;99.90;;;;;;5076546;28;20178;-90
2022/12/25 12:14:09;;;;;;;8.20;5.80;;;9.60;99.90;;;;;;5078457;28;20495;-88
2022/12/25 12:16:35;;;;;;;7.83;5.80;;;9.70;99.90;;;;;;5076430;28;20182;-88
2022/12/25 12:19:25;;;;;;;6.73;5.93;;;9.70;99.90;;;;;;5082341;28;20245;-90
2022/12/25 12:22:03;;;;;;;7.57;5.87;;;9.80;99.90;;;;;;5077706;28;20171;-89
2022/12/25 12:24:41;;;;;;;9.67;6.23;;;9.80;99.90;;;;;;5078349;28;20163;-89
2022/12/25 12:27:28;;;;;;;8.40;6.30;;;9.80;99.90;;;;;;5076407;28;20184;-90
2022/12/25 12:29:57;;;;;;;6.13;5.53;;;9.90;99.90;;;;;;5081461;28;20690;-85
2022/12/25 12:32:39;;;;;;;9.13;5.87;;;9.90;99.90;;;;;;5079684;28;20191;-89
2022/12/25 12:35:25;;;;;;;7.17;6.47;;;9.80;99.90;;;;;;5077408;28;20534;-84
2022/12/25 12:38:04;;;;;;;6.03;5.53;;;9.90;99.90;;;;;;5076448;28;20162;-87
2022/12/25 12:40:37;;;;;;;7.70;6.00;;;9.90;99.90;;;;;;5074927;28;20534;-86
2022/12/25 12:43:06;;;;;;;6.97;6.27;;;10.00;99.90;;;;;;5080516;28;20191;-85
2022/12/25 12:45:35;;;;;;;7.80;6.10;;;10.00;99.90;;;;;;5098200;28;20159;-85
2022/12/25 12:48:12;;;;;;;6.70;5.57;;;10.10;99.90;;;;;;5079610;28;20198;-86
2022/12/25 12:50:40;;;;;;;6.47;5.83;;;10.10;99.90;;;;;;5093658;28;20232;-85
2022/12/25 12:53:22;;;;;;;8.47;6.10;;;10.20;99.90;;;;;;5085718;28;20637;-87
2022/12/25 12:55:48;;;;;;;8.47;6.30;;;10.20;99.90;;;;;;5078459;28;20228;-86
2022/12/25 12:58:29;;;;;;;9.17;6.47;;;10.20;99.90;;;;;;5077615;28;20204;-87
2022/12/25 13:01:23;;;;;;;7.90;6.20;;;10.30;99.90;;;;;;5077990;28;20174;-88
2022/12/25 13:03:59;;;;;;;7.87;6.87;;;10.30;99.90;;;;;;5077147;28;20232;-87
2022/12/25 13:06:56;;;;;;;7.00;6.27;;;10.30;99.90;;;;;;5076790;28;20253;-87
2022/12/25 13:09:39;;;;;;;6.77;6.03;;;10.30;99.90;;;;;;5075503;28;20225;-84
2022/12/25 13:12:11;;;;;;;7.07;6.37;;;10.30;99.90;;;;;;5075807;28;20168;-86
2022/12/25 13:14:43;;;;;;;8.30;6.70;;;10.40;99.90;;;;;;5077380;28;20649;-86
2022/12/25 13:17:09;;;;;;;6.90;6.27;;;10.40;99.90;;;;;;5085300;28;20183;-84
2022/12/25 13:19:36;;;;;;;6.60;6.00;;;10.50;99.90;;;;;;5078363;28;20178;-90
2022/12/25 13:22:05;;;;;;;6.77;6.03;;;10.50;99.90;;;;;;5088226;28;20244;-89
2022/12/25 13:24:35;;;;;;;7.13;6.07;;;10.50;99.90;;;;;;5082289;28;20166;-90
2022/12/25 13:27:22;;;;;;;8.20;6.43;;;10.50;99.90;;;;;;5077104;28;20162;-89
2022/12/25 13:29:48;;;;;;;6.53;5.93;;;10.40;99.90;;;;;;5076533;28;20206;-87
2022/12/25 13:32:23;;;;;;;6.90;6.20;;;10.40;99.90;;;;;;5076034;28;20273;-89
2022/12/25 13:34:50;;;;;;;7.00;6.07;;;10.50;99.90;;;;;;5075512;28;20177;-87
2022/12/25 13:37:19;;;;;;;6.43;5.40;;;10.50;99.90;;;;;;5075659;28;20174;-91
2022/12/25 13:39:56;;;;;;;6.03;5.40;;;10.50;99.90;;;;;;5078066;28;20681;-90
2022/12/25 13:42:29;;;;;;;6.43;5.83;;;10.50;99.90;;;;;;5075829;28;20188;-88
2022/12/25 13:44:59;;;;;;;9.47;6.23;;;10.40;99.90;;;;;;5077081;28;20167;-90
2022/12/25 13:47:29;;;;;;;6.30;5.70;;;10.40;99.90;;;;;;5080196;28;20178;-91
2022/12/25 13:49:57;;;;;;;6.43;5.83;;;10.40;99.90;;;;;;5079279;28;20237;-89
2022/12/25 13:52:30;;;;;;;9.80;7.73;;;10.30;99.90;;;;;;5082170;28;20163;-91
2022/12/25 13:55:14;;;;;;;9.03;7.33;;;10.40;99.90;;;;;;5088034;28;20190;-87
2022/12/25 13:57:53;;;;;;;9.20;8.23;;;10.40;99.90;;;;;;5084975;28;20174;-89
2022/12/25 14:00:42;;;;;;;6.90;6.13;;;10.30;99.90;;;;;;5079415;28;20169;-90
2022/12/25 14:03:21;;;;;;;7.30;6.60;;;10.20;99.90;;;;;;5088821;28;20183;-88
2022/12/25 14:05:55;;;;;;;6.53;5.83;;;10.10;99.90;;;;;;5095564;28;20166;-90
2022/12/25 14:08:25;;;;;;;6.57;5.87;;;10.00;99.90;;;;;;5092350;28;20191;-91
2022/12/25 14:10:52;;;;;;;5.63;5.13;;;9.90;99.90;;;;;;5081035;28;20186;-88
2022/12/25 14:13:22;;;;;;;5.67;5.13;;;9.90;99.90;;;;;;5076979;28;20183;-91
2022/12/25 14:15:49;;;;;;;5.67;5.10;;;9.80;99.90;;;;;;5081918;28;20197;-91
2022/12/25 14:18:17;;;;;;;4.30;4.00;;;9.80;99.90;;;;;;5080882;28;20170;-92
2022/12/25 14:21:04;;;;;;;6.00;5.47;;;9.80;99.90;;;;;;5080881;28;20198;-92
2022/12/25 14:23:49;;;;;;;6.67;5.83;;;9.70;99.90;;;;;;5098307;28;20171;-88
2022/12/25 14:26:31;;;;;;;5.33;4.90;;;9.70;99.90;;;;;;5085814;28;20178;-84
2022/12/25 14:29:13;;;;;;;4.90;4.50;;;9.60;99.90;;;;;;5078778;28;20224;-88
2022/12/25 14:31:40;;;;;;;4.83;4.43;;;9.60;99.90;;;;;;5078583;28;20171;-86
2022/12/25 14:34:22;;;;;;;5.30;4.80;;;9.50;99.90;;;;;;5079731;28;20586;-85
2022/12/25 14:36:49;;;;;;;4.83;4.37;;;9.40;99.90;;;;;;5078222;28;20173;-90
2022/12/25 14:39:36;;;;;;;5.20;4.70;;;9.40;99.90;;;;;;5076682;28;20203;-92
2022/12/25 14:42:29;;;;;;;5.57;5.00;;;9.40;99.90;;;;;;5077283;28;20655;-89